Hopkinsville, Kentucky
Current Conditions -  °F | °C
As of 2:58 AM on Sunday 23 Nov 2014 (Local Time) from KHOP Reporting Station
Overcast Overcast  
Wind Chill: 54°   Ceiling: 2300
Heat Index: 54°   Visibility: 10mi
Dew Point: 41°   Wind: 5mph
Humidity: 62%   Direction: 120°ESE
Pressure: 29.94"   Gusts: NA
Location:  36.87°N, 87.49°W
Report Text: KHOP 230858Z AUTO 12004KT 10SM OVC023 12/05 A2994 RMK AO2 OVC V BKN SLP139 T01220050 57020
Loading
Personal Weather Stations






























Interactive Weather Map New forecast layout! Learn more

10-Day Weather Forecast

Advertisements
Track Severe Weather on mobile